Time;durP1;ratioP1;P1;durP2;ratioP2;P2;SDS_P1;SDS_P2;PMS_P1;PMS_P2;Temp;Humidity;BMP_temperature;BMP_pressure;BME280_temperature;BME280_humidity;BME280_pressure;Samples;Min_cycle;Max_cycle;Signal;HPM_P1;HPM_P2
2022/07/17 00:01:48;;;;;;;;;;;14.90;96.20;;;;;;5049794;28;19994;-65
2022/07/17 00:04:15;;;;;;;;;;;14.90;96.10;;;;;;5048363;28;19925;-65
2022/07/17 00:06:41;;;;;;;;;;;14.90;96.20;;;;;;5050631;28;20019;-65
2022/07/17 00:09:08;;;;;;;;;;;14.80;96.40;;;;;;5045012;28;19968;-64
2022/07/17 00:11:35;;;;;;;;;;;14.80;96.80;;;;;;5047018;28;20649;-65
2022/07/17 00:14:02;;;;;;;;;;;14.80;97.10;;;;;;5047766;28;19975;-65
2022/07/17 00:16:30;;;;;;;;;;;14.70;97.80;;;;;;5049550;28;19925;-65
2022/07/17 00:18:57;;;;;;;;;;;14.70;98.50;;;;;;5049399;28;19948;-65
2022/07/17 00:21:23;;;;;;;;;;;14.70;98.50;;;;;;5049674;28;20369;-65
2022/07/17 00:23:50;;;;;;;;;;;14.60;98.60;;;;;;5041464;28;20011;-65
2022/07/17 00:26:17;;;;;;;;;;;14.50;99.10;;;;;;5049351;28;19929;-65
2022/07/17 00:28:43;;;;;;;;;;;14.50;99.30;;;;;;5049972;28;19924;-65
2022/07/17 00:31:10;;;;;;;;;;;14.40;99.70;;;;;;5049697;28;20011;-65
2022/07/17 00:33:38;;;;;;;;;;;14.50;99.90;;;;;;5046004;28;20015;-65
2022/07/17 00:36:05;;;;;;;;;;;14.50;99.90;;;;;;5049072;28;20118;-65
2022/07/17 00:38:32;;;;;;;;;;;14.40;99.90;;;;;;5047218;28;20031;-65
2022/07/17 00:40:58;;;;;;;;;;;14.30;99.90;;;;;;5046977;28;20015;-65
2022/07/17 00:43:26;;;;;;;;;;;14.40;99.90;;;;;;5048531;28;19933;-66
2022/07/17 00:46:02;;;;;;;;;;;14.20;99.90;;;;;;5047719;28;19956;-66
2022/07/17 00:48:29;;;;;;;;;;;14.10;99.90;;;;;;5038970;28;20008;-67
2022/07/17 00:50:57;;;;;;;;;;;13.90;99.90;;;;;;5047517;28;19972;-67
2022/07/17 00:53:24;;;;;;;;;;;13.80;99.90;;;;;;5048809;28;20463;-67
2022/07/17 00:55:51;;;;;;;;;;;13.70;99.90;;;;;;5049473;28;20402;-67
2022/07/17 00:58:19;;;;;;;;;;;13.60;99.90;;;;;;5050697;28;20024;-67
2022/07/17 01:00:46;;;;;;;;;;;13.60;99.90;;;;;;5048101;28;19948;-67
2022/07/17 01:03:13;;;;;;;;;;;13.60;99.90;;;;;;5050326;28;20055;-67
2022/07/17 01:05:42;;;;;;;;;;;13.60;99.90;;;;;;5045574;28;20168;-66
2022/07/17 01:08:11;;;;;;;;;;;13.60;99.90;;;;;;5049527;28;19925;-66
2022/07/17 01:10:38;;;;;;;;;;;13.60;99.90;;;;;;5047362;28;20475;-66
2022/07/17 01:13:05;;;;;;;;;;;13.70;99.90;;;;;;5049087;28;19925;-66
2022/07/17 01:15:32;;;;;;;;;;;13.80;99.90;;;;;;5042301;28;19936;-67
2022/07/17 01:17:59;;;;;;;;;;;13.80;99.90;;;;;;5047208;28;20010;-66
2022/07/17 01:20:26;;;;;;;;;;;13.90;99.90;;;;;;5051226;28;19975;-66
2022/07/17 01:22:54;;;;;;;;;;;13.90;99.90;;;;;;5053249;28;20396;-67
2022/07/17 01:25:22;;;;;;;;;;;13.90;99.90;;;;;;5052013;28;19972;-66
2022/07/17 01:27:49;;;;;;;;;;;13.90;99.90;;;;;;5052770;28;20351;-66
2022/07/17 01:30:16;;;;;;;;;;;13.90;99.90;;;;;;5051120;28;20028;-66
2022/07/17 01:32:43;;;;;;;;;;;13.80;99.90;;;;;;5050047;28;20188;-66
2022/07/17 01:35:10;;;;;;;;;;;13.60;99.90;;;;;;5048595;28;20015;-66
2022/07/17 01:37:37;;;;;;;;;;;13.50;99.90;;;;;;5050110;28;19936;-66
2022/07/17 01:40:06;;;;;;;;;;;13.40;99.90;;;;;;5043967;28;20307;-67
2022/07/17 01:42:32;;;;;;;;;;;13.40;99.90;;;;;;5049321;28;20543;-66
2022/07/17 01:44:59;;;;;;;;;;;13.40;99.90;;;;;;5050420;28;19979;-66
2022/07/17 01:47:26;;;;;;;;;;;13.40;99.90;;;;;;5048683;28;20484;-66
2022/07/17 01:49:54;;;;;;;;;;;13.30;99.90;;;;;;5051060;28;19929;-66
2022/07/17 01:52:21;;;;;;;;;;;13.40;99.90;;;;;;5047213;28;19983;-65
2022/07/17 01:54:48;;;;;;;;;;;13.40;99.90;;;;;;5046314;28;19925;-66
2022/07/17 01:57:16;;;;;;;;;;;13.40;99.90;;;;;;5052741;28;20351;-66
2022/07/17 01:59:43;;;;;;;;;;;13.40;99.90;;;;;;5052871;28;19984;-66
2022/07/17 02:02:10;;;;;;;;;;;13.30;99.90;;;;;;5052213;28;19924;-66
2022/07/17 02:04:37;;;;;;;;;;;13.30;99.90;;;;;;5051320;28;19964;-66
2022/07/17 02:07:04;;;;;;;;;;;13.30;99.90;;;;;;5051275;28;20039;-66
2022/07/17 02:09:31;;;;;;;;;;;13.30;99.90;;;;;;5047320;28;20476;-65
2022/07/17 02:11:58;;;;;;;;;;;13.20;99.90;;;;;;5052489;28;20023;-66
2022/07/17 02:14:26;;;;;;;;;;;13.20;99.90;;;;;;5049524;28;20475;-66
2022/07/17 02:16:53;;;;;;;;;;;13.10;99.90;;;;;;5049829;28;19933;-66
2022/07/17 02:19:20;;;;;;;;;;;12.90;99.90;;;;;;5050582;28;20330;-66
2022/07/17 02:21:47;;;;;;;;;;;12.90;99.90;;;;;;5052450;28;20025;-66
2022/07/17 02:24:14;;;;;;;;;;;12.80;99.90;;;;;;5049594;28;19928;-66
2022/07/17 02:26:40;;;;;;;;;;;12.80;99.90;;;;;;5049098;28;20427;-66
2022/07/17 02:29:07;;;;;;;;;;;12.70;99.90;;;;;;5048767;28;19932;-66
2022/07/17 02:31:35;;;;;;;;;;;12.70;99.90;;;;;;5050884;28;20395;-66
2022/07/17 02:34:01;;;;;;;;;;;12.70;99.90;;;;;;5051580;28;20011;-66
2022/07/17 02:36:28;;;;;;;;;;;12.70;99.90;;;;;;5049117;28;20015;-66
2022/07/17 02:38:55;;;;;;;;;;;12.70;99.90;;;;;;5044888;28;19964;-66
2022/07/17 02:41:22;;;;;;;;;;;12.80;99.90;;;;;;5051773;28;19925;-66
2022/07/17 02:43:48;;;;;;;;;;;12.70;99.90;;;;;;5050841;28;19980;-66
2022/07/17 02:46:15;;;;;;;;;;;12.80;99.90;;;;;;5049778;28;20016;-66
2022/07/17 02:48:43;;;;;;;;;;;12.80;99.90;;;;;;5046639;28;20019;-66
2022/07/17 02:51:10;;;;;;;;;;;12.80;99.90;;;;;;5052141;28;19960;-66
2022/07/17 02:53:37;;;;;;;;;;;12.80;99.90;;;;;;5051708;28;20300;-67
2022/07/17 02:56:03;;;;;;;;;;;12.70;99.90;;;;;;5048010;28;19929;-66
2022/07/17 02:58:30;;;;;;;;;;;12.60;99.90;;;;;;5051160;28;20008;-66
2022/07/17 03:00:57;;;;;;;;;;;12.50;99.90;;;;;;5050843;28;20091;-66
2022/07/17 03:03:24;;;;;;;;;;;12.50;99.90;;;;;;5051526;28;20020;-66
2022/07/17 03:05:52;;;;;;;;;;;12.40;99.90;;;;;;5049602;28;19960;-66
2022/07/17 03:08:18;;;;;;;;;;;12.40;99.90;;;;;;5050728;28;20019;-66
2022/07/17 03:10:45;;;;;;;;;;;12.40;99.90;;;;;;5048787;28;20015;-66
2022/07/17 03:13:12;;;;;;;;;;;12.40;99.90;;;;;;5050370;28;19931;-66
2022/07/17 03:15:38;;;;;;;;;;;12.50;99.90;;;;;;5048147;28;20019;-66
2022/07/17 03:18:05;;;;;;;;;;;12.40;99.90;;;;;;5051295;28;19975;-67
2022/07/17 03:20:32;;;;;;;;;;;12.30;99.90;;;;;;5045204;28;19924;-67
2022/07/17 03:23:00;;;;;;;;;;;12.30;99.90;;;;;;5051236;28;20015;-67
2022/07/17 03:25:26;;;;;;;;;;;12.20;99.90;;;;;;5047785;28;20011;-67
2022/07/17 03:27:53;;;;;;;;;;;12.20;99.90;;;;;;5050923;28;20016;-67
2022/07/17 03:30:20;;;;;;;;;;;12.10;99.90;;;;;;5050047;28;20015;-67
2022/07/17 03:32:46;;;;;;;;;;;12.10;99.90;;;;;;5053390;28;21689;-67
2022/07/17 03:35:13;;;;;;;;;;;12.10;99.90;;;;;;5046886;28;19996;-67
2022/07/17 03:37:40;;;;;;;;;;;12.10;99.90;;;;;;5052801;28;20023;-66
2022/07/17 03:40:09;;;;;;;;;;;12.20;99.90;;;;;;5048697;28;19928;-67
2022/07/17 03:42:36;;;;;;;;;;;12.20;99.90;;;;;;5051275;28;20406;-67
2022/07/17 03:45:02;;;;;;;;;;;12.20;99.90;;;;;;5048344;28;19987;-67
2022/07/17 03:47:29;;;;;;;;;;;12.30;99.90;;;;;;5051957;28;20011;-66
2022/07/17 03:49:56;;;;;;;;;;;12.30;99.90;;;;;;5047244;28;20020;-67
2022/07/17 03:52:22;;;;;;;;;;;12.30;99.90;;;;;;5050785;28;20395;-67
2022/07/17 03:54:49;;;;;;;;;;;12.30;99.90;;;;;;5047793;28;19929;-66
2022/07/17 03:57:17;;;;;;;;;;;12.30;99.90;;;;;;5050106;28;19931;-65
2022/07/17 03:59:44;;;;;;;;;;;12.30;99.90;;;;;;5044124;28;20023;-67
2022/07/17 04:02:10;;;;;;;;;;;12.50;99.90;;;;;;5049370;28;19960;-66
2022/07/17 04:04:37;;;;;;;;;;;12.40;99.90;;;;;;5046054;28;20475;-66
2022/07/17 04:07:04;;;;;;;;;;;12.40;99.90;;;;;;5050871;28;20451;-67
2022/07/17 04:09:30;;;;;;;;;;;12.30;99.90;;;;;;5045773;28;19952;-67
2022/07/17 04:11:57;;;;;;;;;;;12.30;99.90;;;;;;5049532;28;19972;-67
2022/07/17 04:14:25;;;;;;;;;;;12.30;99.90;;;;;;5045831;28;20082;-67
2022/07/17 04:16:52;;;;;;;;;;;12.30;99.90;;;;;;5048366;28;19954;-67
2022/07/17 04:19:18;;;;;;;;;;;12.40;99.90;;;;;;5048222;28;19935;-67
2022/07/17 04:21:45;;;;;;;;;;;12.40;99.90;;;;;;5051237;28;19925;-67
2022/07/17 04:24:12;;;;;;;;;;;12.40;99.90;;;;;;5045014;28;20296;-67
2022/07/17 04:26:38;;;;;;;;;;;12.40;99.90;;;;;;5047302;28;20299;-67
2022/07/17 04:29:05;;;;;;;;;;;12.50;99.90;;;;;;5047853;28;20015;-67
2022/07/17 04:31:33;;;;;;;;;;;12.60;99.90;;;;;;5049308;28;20007;-67
2022/07/17 04:34:00;;;;;;;;;;;12.60;99.90;;;;;;5048334;28;20019;-67
2022/07/17 04:36:26;;;;;;;;;;;12.70;99.90;;;;;;5049769;28;19925;-67
2022/07/17 04:38:53;;;;;;;;;;;12.70;99.90;;;;;;5046100;28;20375;-66
2022/07/17 04:41:20;;;;;;;;;;;12.70;99.90;;;;;;5047798;28;20376;-67
2022/07/17 04:43:46;;;;;;;;;;;12.70;99.90;;;;;;5045554;28;20379;-66
2022/07/17 04:46:13;;;;;;;;;;;12.70;99.90;;;;;;5050565;28;19929;-67
2022/07/17 04:48:41;;;;;;;;;;;12.80;99.90;;;;;;5049685;28;20019;-67
2022/07/17 04:51:08;;;;;;;;;;;12.80;99.90;;;;;;5050118;28;19925;-68
2022/07/17 04:53:35;;;;;;;;;;;12.80;99.90;;;;;;5045937;28;20727;-67
2022/07/17 04:56:02;;;;;;;;;;;12.80;99.90;;;;;;5048704;28;19924;-66
2022/07/17 04:58:28;;;;;;;;;;;12.90;99.90;;;;;;5050153;28;20015;-66
2022/07/17 05:00:55;;;;;;;;;;;12.90;99.90;;;;;;5044507;28;19928;-65
2022/07/17 05:03:22;;;;;;;;;;;13.00;99.90;;;;;;5049407;28;20012;-66
2022/07/17 05:05:50;;;;;;;;;;;13.10;99.90;;;;;;5047658;28;20000;-66
2022/07/17 05:08:18;;;;;;;;;;;13.10;99.90;;;;;;5048899;28;20008;-66
2022/07/17 05:10:45;;;;;;;;;;;13.20;99.90;;;;;;5047054;28;20422;-66
2022/07/17 05:13:12;;;;;;;;;;;13.30;99.90;;;;;;5047463;28;19991;-67
2022/07/17 05:15:39;;;;;;;;;;;13.30;99.90;;;;;;5046488;28;19929;-66
2022/07/17 05:18:05;;;;;;;;;;;13.40;99.90;;;;;;5050562;28;20011;-67
2022/07/17 05:20:32;;;;;;;;;;;13.50;99.90;;;;;;5045510;28;19929;-67
2022/07/17 05:23:00;;;;;;;;;;;13.60;99.90;;;;;;5046556;28;20024;-67
2022/07/17 05:25:27;;;;;;;;;;;13.70;99.90;;;;;;5047028;28;20447;-67
2022/07/17 05:27:54;;;;;;;;;;;13.90;99.90;;;;;;5048681;28;19931;-67
2022/07/17 05:30:20;;;;;;;;;;;14.00;99.90;;;;;;5045237;28;19976;-67
2022/07/17 05:32:47;;;;;;;;;;;14.00;99.90;;;;;;5045869;28;20100;-66
2022/07/17 05:35:14;;;;;;;;;;;14.10;99.90;;;;;;5045573;28;19925;-66
2022/07/17 05:37:40;;;;;;;;;;;14.10;99.90;;;;;;5046761;28;20041;-66
2022/07/17 05:40:09;;;;;;;;;;;14.20;99.90;;;;;;5046523;28;19994;-66
2022/07/17 05:42:36;;;;;;;;;;;14.40;99.90;;;;;;5050553;28;19964;-66
2022/07/17 05:45:02;;;;;;;;;;;14.50;99.90;;;;;;5046693;28;19968;-67
2022/07/17 05:47:29;;;;;;;;;;;14.60;99.90;;;;;;5047899;28;19939;-66
2022/07/17 05:49:56;;;;;;;;;;;14.80;99.90;;;;;;5044000;28;19964;-66
2022/07/17 05:52:23;;;;;;;;;;;14.80;99.90;;;;;;5048839;28;20414;-66
2022/07/17 05:54:49;;;;;;;;;;;14.80;99.90;;;;;;5045973;28;19925;-67
2022/07/17 05:57:17;;;;;;;;;;;14.80;99.90;;;;;;5046645;28;19925;-66
2022/07/17 05:59:44;;;;;;;;;;;14.90;99.90;;;;;;5047604;28;19925;-66
2022/07/17 06:02:11;;;;;;;;;;;15.20;99.90;;;;;;5049542;28;20002;-66
2022/07/17 06:04:38;;;;;;;;;;;15.50;99.90;;;;;;5046639;28;20443;-65
2022/07/17 06:07:04;;;;;;;;;;;17.10;99.90;;;;;;5052851;28;20351;-65
2022/07/17 06:09:32;;;;;;;;;;;18.40;98.00;;;;;;5050286;28;19978;-65
2022/07/17 06:11:58;;;;;;;;;;;19.50;93.00;;;;;;5053335;28;19925;-66
2022/07/17 06:14:26;;;;;;;;;;;19.50;92.50;;;;;;5049070;28;19925;-66
2022/07/17 06:16:53;;;;;;;;;;;20.30;90.10;;;;;;5050350;28;20020;-67
2022/07/17 06:19:20;;;;;;;;;;;20.70;89.00;;;;;;5049734;28;19968;-66
2022/07/17 06:21:46;;;;;;;;;;;22.60;76.50;;;;;;5049004;28;20022;-66
2022/07/17 06:24:13;;;;;;;;;;;24.00;66.00;;;;;;5049241;28;20008;-67
2022/07/17 06:26:40;;;;;;;;;;;25.30;55.00;;;;;;5053298;28;19968;-68
2022/07/17 06:29:06;;;;;;;;;;;24.80;47.50;;;;;;5047461;28;20011;-68
2022/07/17 06:31:34;;;;;;;;;;;22.90;53.10;;;;;;5053031;28;19925;-68
2022/07/17 06:34:01;;;;;;;;;;;23.60;53.00;;;;;;5045863;28;20023;-67
2022/07/17 06:36:28;;;;;;;;;;;22.10;54.00;;;;;;5049232;28;19925;-67
2022/07/17 06:38:54;;;;;;;;;;;20.70;58.20;;;;;;5046812;28;20360;-67
2022/07/17 06:41:21;;;;;;;;;;;19.30;68.50;;;;;;5050154;28;19957;-66
2022/07/17 06:43:48;;;;;;;;;;;19.10;74.80;;;;;;5043963;28;19971;-67
2022/07/17 06:46:14;;;;;;;;;;;18.60;79.50;;;;;;5049241;28;19931;-65
2022/07/17 06:48:42;;;;;;;;;;;18.00;86.70;;;;;;5046376;28;19925;-66
2022/07/17 06:51:09;;;;;;;;;;;17.90;90.00;;;;;;5051772;28;20020;-67
2022/07/17 06:53:36;;;;;;;;;;;18.90;86.40;;;;;;5051233;28;19929;-67
2022/07/17 06:56:03;;;;;;;;;;;19.80;80.80;;;;;;5049543;28;19964;-67
2022/07/17 06:58:29;;;;;;;;;;;20.60;73.60;;;;;;5052353;28;19931;-66
2022/07/17 07:00:56;;;;;;;;;;;21.00;72.30;;;;;;5044800;28;20447;-66
2022/07/17 07:03:23;;;;;;;;;;;22.30;66.40;;;;;;5050479;28;20288;-66
2022/07/17 07:05:51;;;;;;;;;;;23.80;53.60;;;;;;5049823;28;19968;-67
2022/07/17 07:08:17;;;;;;;;;;;25.30;49.40;;;;;;5048839;28;19929;-65
2022/07/17 07:10:45;;;;;;;;;;;25.60;41.80;;;;;;5048458;28;20019;-68
2022/07/17 07:13:12;;;;;;;;;;;24.00;43.50;;;;;;5051895;28;20400;-66
2022/07/17 07:15:39;;;;;;;;;;;25.60;40.40;;;;;;5044875;28;20376;-68
2022/07/17 07:18:05;;;;;;;;;;;27.10;35.10;;;;;;5049744;28;20019;-68
2022/07/17 07:20:32;;;;;;;;;;;27.50;31.60;;;;;;5048637;28;19925;-68
2022/07/17 07:23:00;;;;;;;;;;;27.90;29.80;;;;;;5052936;28;19931;-68
2022/07/17 07:25:27;;;;;;;;;;;27.90;28.80;;;;;;5046069;28;20016;-67
2022/07/17 07:27:53;;;;;;;;;;;27.10;30.50;;;;;;5048909;28;19979;-68
2022/07/17 07:30:20;;;;;;;;;;;27.00;28.50;;;;;;5049494;28;19937;-67
2022/07/17 07:32:47;;;;;;;;;;;25.80;30.90;;;;;;5047720;28;19924;-67
2022/07/17 07:35:13;;;;;;;;;;;25.60;32.00;;;;;;5044990;28;19972;-68
2022/07/17 07:37:40;;;;;;;;;;;24.40;34.20;;;;;;5050170;28;20039;-67
2022/07/17 07:40:09;;;;;;;;;;;25.10;33.80;;;;;;5047811;28;20011;-68
2022/07/17 07:42:35;;;;;;;;;;;25.30;33.20;;;;;;5048211;28;19968;-67
2022/07/17 07:45:02;;;;;;;;;;;25.30;31.40;;;;;;5050152;28;20015;-68
2022/07/17 07:47:29;;;;;;;;;;;25.60;30.10;;;;;;5051846;28;19964;-67
2022/07/17 07:49:56;;;;;;;;;;;25.80;31.10;;;;;;5050124;28;20004;-68
2022/07/17 07:52:23;;;;;;;;;;;24.30;34.30;;;;;;5050776;28;19971;-67
2022/07/17 07:54:50;;;;;;;;;;;24.70;32.10;;;;;;5050811;28;19925;-67
2022/07/17 07:57:18;;;;;;;;;;;24.50;32.80;;;;;;5045069;28;19986;-68
2022/07/17 07:59:44;;;;;;;;;;;24.20;31.70;;;;;;5046952;28;20003;-67
2022/07/17 08:02:11;;;;;;;;;;;24.70;32.00;;;;;;5037639;28;19932;-67
2022/07/17 08:04:38;;;;;;;;;;;25.60;30.30;;;;;;5037527;28;19929;-67
2022/07/17 08:07:04;;;;;;;;;;;25.10;30.70;;;;;;5047106;28;19967;-67
2022/07/17 08:09:31;;;;;;;;;;;25.00;31.80;;;;;;5043814;28;20343;-68
2022/07/17 08:11:58;;;;;;;;;;;26.40;30.00;;;;;;5042762;28;19933;-68
2022/07/17 08:14:26;;;;;;;;;;;24.60;31.40;;;;;;5045030;28;19972;-67
2022/07/17 08:16:52;;;;;;;;;;;24.80;30.30;;;;;;5046600;28;20304;-68
2022/07/17 08:19:19;;;;;;;;;;;25.40;30.20;;;;;;5041020;28;20023;-68
2022/07/17 08:21:46;;;;;;;;;;;25.10;28.60;;;;;;5045382;28;19925;-68
2022/07/17 08:24:12;;;;;;;;;;;25.20;30.00;;;;;;5035201;28;20775;-68
2022/07/17 08:26:39;;;;;;;;;;;24.80;30.20;;;;;;5027113;28;19972;-67
2022/07/17 08:29:06;;;;;;;;;;;25.80;29.10;;;;;;5040988;28;20384;-67
2022/07/17 08:31:34;;;;;;;;;;;25.90;29.30;;;;;;5042858;28;20019;-66
2022/07/17 08:34:01;;;;;;;;;;;27.50;26.30;;;;;;5044364;28;19929;-66
2022/07/17 08:36:28;;;;;;;;;;;27.20;26.30;;;;;;5043206;28;20300;-68
2022/07/17 08:38:54;;;;;;;;;;;27.90;23.70;;;;;;5037463;28;19928;-67
2022/07/17 08:41:22;;;;;;;;;;;28.20;23.50;;;;;;5046328;28;19925;-67
2022/07/17 08:43:50;;;;;;;;;;;26.90;25.30;;;;;;5045018;28;19929;-67
2022/07/17 08:46:17;;;;;;;;;;;25.50;24.50;;;;;;5040723;28;19948;-66
2022/07/17 08:48:46;;;;;;;;;;;25.90;24.80;;;;;;5040705;28;19959;-66
2022/07/17 08:51:16;;;;;;;;;;;26.30;24.80;;;;;;5049932;28;20018;-67
2022/07/17 08:53:43;;;;;;;;;;;27.30;23.60;;;;;;5045734;28;20014;-67
2022/07/17 08:56:10;;;;;;;;;;;27.50;22.70;;;;;;5044512;28;19928;-66
2022/07/17 08:58:37;;;;;;;;;;;26.70;23.40;;;;;;5048789;28;19931;-67
2022/07/17 09:01:04;;;;;;;;;;;26.40;24.80;;;;;;5046180;28;19925;-66
2022/07/17 09:03:31;;;;;;;;;;;26.50;23.30;;;;;;5046818;28;19972;-66
2022/07/17 09:05:59;;;;;;;;;;;25.60;25.40;;;;;;5046745;28;19978;-66
2022/07/17 09:08:29;;;;;;;;;;;25.70;25.50;;;;;;5050341;28;19968;-66
2022/07/17 09:10:56;;;;;;;;;;;26.20;24.90;;;;;;5048807;28;20343;-66
2022/07/17 09:13:23;;;;;;;;;;;26.00;23.60;;;;;;5050966;28;20334;-66
2022/07/17 09:15:50;;;;;;;;;;;25.60;25.20;;;;;;5047272;28;19925;-66
2022/07/17 09:18:18;;;;;;;;;;;26.80;23.50;;;;;;5048199;28;20020;-66
2022/07/17 09:20:46;;;;;;;;;;;26.00;23.90;;;;;;5040484;28;19986;-67
2022/07/17 09:23:14;;;;;;;;;;;25.40;25.70;;;;;;5037873;28;20387;-66
2022/07/17 09:25:41;;;;;;;;;;;25.90;23.00;;;;;;5040328;28;19975;-67
2022/07/17 09:28:09;;;;;;;;;;;26.70;23.30;;;;;;5044907;28;19986;-66
2022/07/17 09:30:37;;;;;;;;;;;25.70;24.30;;;;;;5045404;28;19979;-66
2022/07/17 09:33:06;;;;;;;;;;;24.30;25.40;;;;;;5044677;28;19925;-66
2022/07/17 09:35:32;;;;;;;;;;;24.10;26.90;;;;;;5040592;28;19929;-66
2022/07/17 09:37:59;;;;;;;;;;;25.50;25.20;;;;;;5044575;28;20011;-66
2022/07/17 09:43:12;;;;;;;;;;;25.90;24.20;;;;;;5043544;28;20303;-67
2022/07/17 09:45:39;;;;;;;;;;;25.40;24.10;;;;;;5046287;28;19964;-67
2022/07/17 09:48:06;;;;;;;;;;;26.30;23.90;;;;;;5045049;28;19982;-67
2022/07/17 09:50:33;;;;;;;;;;;27.90;21.90;;;;;;5048164;28;19965;-67
2022/07/17 09:52:59;;;;;;;;;;;27.20;21.40;;;;;;5050564;28;19965;-66
2022/07/17 09:55:30;;;;;;;;;;;27.20;21.20;;;;;;5049617;28;19932;-66
2022/07/17 09:57:59;;;;;;;;;;;25.50;23.10;;;;;;5051493;28;19932;-68
2022/07/17 10:00:26;;;;;;;;;;;25.40;24.80;;;;;;5052602;28;19955;-70
2022/07/17 10:02:53;;;;;;;;;;;24.90;24.70;;;;;;5049843;28;19939;-66
2022/07/17 10:05:20;;;;;;;;;;;25.80;23.60;;;;;;5047293;28;19975;-68
2022/07/17 10:07:49;;;;;;;;;;;26.90;22.50;;;;;;5049533;28;19925;-66
2022/07/17 10:10:17;;;;;;;;;;;26.90;21.30;;;;;;5046641;28;20364;-66
2022/07/17 10:12:46;;;;;;;;;;;26.90;20.40;;;;;;5049976;28;19925;-65
2022/07/17 10:15:13;;;;;;;;;;;27.80;18.60;;;;;;5047304;28;20015;-66
2022/07/17 10:17:40;;;;;;;;;;;25.60;21.50;;;;;;5048090;28;19955;-66
2022/07/17 10:20:08;;;;;;;;;;;24.10;24.90;;;;;;5045730;28;19964;-67
2022/07/17 10:22:42;;;;;;;;;;;23.70;25.50;;;;;;5046752;28;20391;-66
2022/07/17 10:25:12;;;;;;;;;;;23.30;26.00;;;;;;5049681;28;19928;-67
2022/07/17 10:27:46;;;;;;;;;;;23.80;25.80;;;;;;5050162;28;19962;-67
2022/07/17 10:30:20;;;;;;;;;;;23.80;25.20;;;;;;5046472;28;19966;-67
2022/07/17 10:32:51;;;;;;;;;;;23.80;25.60;;;;;;5049718;28;19925;-67
2022/07/17 10:35:18;;;;;;;;;;;23.70;26.40;;;;;;5046840;28;19929;-68
2022/07/17 10:37:45;;;;;;;;;;;23.90;25.80;;;;;;5049622;28;19925;-66
2022/07/17 10:40:13;;;;;;;;;;;24.50;25.20;;;;;;5048902;28;19929;-66
2022/07/17 10:42:41;;;;;;;;;;;24.80;24.90;;;;;;5048552;28;19986;-65
2022/07/17 10:45:08;;;;;;;;;;;24.20;25.00;;;;;;5044291;28;19929;-66
2022/07/17 10:47:47;;;;;;;;;;;24.00;25.30;;;;;;5046275;28;19933;-67
2022/07/17 10:50:14;;;;;;;;;;;23.60;25.90;;;;;;5041953;28;19932;-66
2022/07/17 10:52:41;;;;;;;;;;;23.40;25.70;;;;;;5048019;28;19978;-66
2022/07/17 10:55:19;;;;;;;;;;;23.40;25.10;;;;;;5047191;28;20018;-66
2022/07/17 10:57:47;;;;;;;;;;;23.50;25.50;;;;;;5049511;28;20265;-66
2022/07/17 11:00:15;;;;;;;;;;;23.50;26.20;;;;;;5047782;28;19925;-67
2022/07/17 11:02:42;;;;;;;;;;;23.40;26.30;;;;;;5048118;28;20027;-66
2022/07/17 11:05:11;;;;;;;;;;;24.00;25.20;;;;;;5044012;28;19925;-67
2022/07/17 11:07:48;;;;;;;;;;;24.10;25.90;;;;;;5047352;28;19971;-66
2022/07/17 11:10:15;;;;;;;;;;;23.60;25.60;;;;;;5042307;28;19959;-65
2022/07/17 11:12:42;;;;;;;;;;;24.00;26.00;;;;;;5049198;28;19925;-66
2022/07/17 11:15:09;;;;;;;;;;;24.60;25.50;;;;;;5046003;28;19936;-70
2022/07/17 11:17:36;;;;;;;;;;;24.50;25.00;;;;;;5040850;28;19928;-71
2022/07/17 11:20:03;;;;;;;;;;;24.40;25.50;;;;;;5048053;28;20307;-72
2022/07/17 11:22:31;;;;;;;;;;;24.20;25.10;;;;;;5049452;28;19924;-71
2022/07/17 11:24:58;;;;;;;;;;;24.10;26.40;;;;;;5045985;28;19925;-71
2022/07/17 11:27:26;;;;;;;;;;;23.80;26.30;;;;;;5048901;28;19986;-70
2022/07/17 11:29:53;;;;;;;;;;;23.90;26.80;;;;;;5048214;28;20096;-72
2022/07/17 11:32:20;;;;;;;;;;;24.00;25.90;;;;;;5048459;28;20020;-71
2022/07/17 11:34:47;;;;;;;;;;;24.30;25.90;;;;;;5047707;28;20015;-71
2022/07/17 11:37:15;;;;;;;;;;;24.00;25.30;;;;;;5049189;28;19929;-71
2022/07/17 11:39:46;;;;;;;;;;;24.10;25.40;;;;;;5047054;28;20332;-71
2022/07/17 11:42:13;;;;;;;;;;;24.40;25.50;;;;;;5043809;28;19933;-71
2022/07/17 11:44:40;;;;;;;;;;;24.50;25.90;;;;;;5044154;28;19925;-71
2022/07/17 11:47:08;;;;;;;;;;;24.30;25.60;;;;;;5046460;28;20328;-71
2022/07/17 11:49:35;;;;;;;;;;;24.30;25.60;;;;;;5044688;28;20019;-72
2022/07/17 11:52:08;;;;;;;;;;;24.50;25.50;;;;;;5045275;28;19935;-73
2022/07/17 11:54:46;;;;;;;;;;;24.70;25.50;;;;;;5045912;28;19925;-71
2022/07/17 11:57:14;;;;;;;;;;;24.50;25.40;;;;;;5042380;28;19972;-70
2022/07/17 11:59:41;;;;;;;;;;;24.90;25.20;;;;;;5043192;28;20015;-71
2022/07/17 12:02:08;;;;;;;;;;;24.90;23.60;;;;;;5044885;28;19928;-71
2022/07/17 12:04:35;;;;;;;;;;;24.80;24.00;;;;;;5044488;28;19932;-71
2022/07/17 12:07:02;;;;;;;;;;;24.80;23.00;;;;;;5045362;28;19931;-71
2022/07/17 12:09:30;;;;;;;;;;;24.70;23.20;;;;;;5046504;28;19925;-71
2022/07/17 12:11:58;;;;;;;;;;;24.60;22.60;;;;;;5050647;28;19982;-72
2022/07/17 12:14:25;;;;;;;;;;;24.90;21.70;;;;;;5048675;28;19925;-72
2022/07/17 12:16:52;;;;;;;;;;;24.90;23.20;;;;;;5055607;28;19986;-72
2022/07/17 12:19:19;;;;;;;;;;;24.40;24.10;;;;;;5048708;28;19948;-72
2022/07/17 12:21:50;;;;;;;;;;;24.80;23.80;;;;;;5049428;28;19959;-71
2022/07/17 12:24:22;;;;;;;;;;;25.50;23.90;;;;;;5048397;28;19925;-72
2022/07/17 12:26:49;;;;;;;;;;;25.80;22.70;;;;;;5044777;28;20535;-72
2022/07/17 12:29:17;;;;;;;;;;;25.70;22.10;;;;;;5047849;28;19929;-71
2022/07/17 12:31:44;;;;;;;;;;;25.70;22.40;;;;;;5046480;28;20377;-72
2022/07/17 12:34:11;;;;;;;;;;;25.80;22.00;;;;;;5039333;28;20008;-72
2022/07/17 12:36:38;;;;;;;;;;;25.10;22.00;;;;;;5048002;28;19931;-71
2022/07/17 12:39:05;;;;;;;;;;;25.30;22.40;;;;;;5042836;28;19984;-71
2022/07/17 12:41:32;;;;;;;;;;;25.40;18.50;;;;;;5043752;28;19978;-70
2022/07/17 12:43:59;;;;;;;;;;;25.50;19.60;;;;;;5045685;28;20399;-72
2022/07/17 12:46:27;;;;;;;;;;;25.30;22.10;;;;;;5047382;28;19971;-72
2022/07/17 12:48:54;;;;;;;;;;;25.50;20.40;;;;;;5044990;28;19924;-72
2022/07/17 12:51:21;;;;;;;;;;;25.90;19.00;;;;;;5048658;28;20000;-71
2022/07/17 12:53:47;;;;;;;;;;;26.00;18.40;;;;;;5044618;28;19964;-71
2022/07/17 12:56:14;;;;;;;;;;;25.90;19.20;;;;;;5046613;28;19986;-72
2022/07/17 12:58:41;;;;;;;;;;;26.00;19.30;;;;;;5046021;28;19924;-71
2022/07/17 13:01:08;;;;;;;;;;;25.60;20.40;;;;;;5046399;28;19924;-72
2022/07/17 13:03:37;;;;;;;;;;;25.70;20.30;;;;;;5047809;28;20376;-72
2022/07/17 13:06:04;;;;;;;;;;;26.00;19.60;;;;;;5046489;28;20007;-71
2022/07/17 13:08:31;;;;;;;;;;;26.20;19.00;;;;;;5044768;28;19929;-72
2022/07/17 13:10:58;;;;;;;;;;;26.10;17.20;;;;;;5045343;28;20064;-72
2022/07/17 13:13:25;;;;;;;;;;;25.80;17.20;;;;;;5048129;28;19986;-70
2022/07/17 13:15:52;;;;;;;;;;;25.70;18.20;;;;;;5046104;28;20271;-71
2022/07/17 13:18:19;;;;;;;;;;;25.90;16.80;;;;;;5051153;28;19987;-71
2022/07/17 13:20:47;;;;;;;;;;;26.10;15.00;;;;;;5050821;28;19935;-71
2022/07/17 13:23:15;;;;;;;;;;;26.00;14.80;;;;;;5049484;28;19925;-72
2022/07/17 13:25:42;;;;;;;;;;;26.10;11.50;;;;;;5049925;28;19924;-72
2022/07/17 13:28:09;;;;;;;;;;;25.90;16.40;;;;;;5048128;28;19933;-72
2022/07/17 13:30:36;;;;;;;;;;;26.40;16.10;;;;;;5049809;28;19933;-71
2022/07/17 13:33:03;;;;;;;;;;;26.70;15.70;;;;;;5049801;28;19925;-71
2022/07/17 13:35:30;;;;;;;;;;;26.00;16.60;;;;;;5048828;28;19960;-72
2022/07/17 13:38:01;;;;;;;;;;;26.00;15.90;;;;;;5046126;28;19929;-73
2022/07/17 13:40:28;;;;;;;;;;;26.20;16.10;;;;;;5051902;28;19925;-71
2022/07/17 13:42:55;;;;;;;;;;;26.10;15.60;;;;;;5052894;28;19986;-72
2022/07/17 13:45:23;;;;;;;;;;;26.00;13.90;;;;;;5047310;28;19960;-73
2022/07/17 13:47:49;;;;;;;;;;;26.10;13.80;;;;;;5046927;28;20273;-71
2022/07/17 13:50:16;;;;;;;;;;;26.10;12.10;;;;;;5042528;28;20015;-72
2022/07/17 13:52:43;;;;;;;;;;;26.30;12.20;;;;;;5045592;28;19925;-72
2022/07/17 13:55:11;;;;;;;;;;;26.30;10.60;;;;;;5051215;28;19925;-71
2022/07/17 13:57:38;;;;;;;;;;;26.30;12.00;;;;;;5045393;28;19968;-71
2022/07/17 14:00:05;;;;;;;;;;;26.20;12.00;;;;;;5044075;28;19925;-71
2022/07/17 14:02:32;;;;;;;;;;;26.40;11.00;;;;;;5045872;28;19929;-72
2022/07/17 14:04:59;;;;;;;;;;;26.30;10.80;;;;;;5044543;28;20015;-72
2022/07/17 14:07:26;;;;;;;;;;;26.40;12.70;;;;;;5048897;28;19928;-71
2022/07/17 14:09:52;;;;;;;;;;;26.10;11.30;;;;;;5044185;28;19956;-71
2022/07/17 14:12:20;;;;;;;;;;;26.60;9.80;;;;;;5048017;28;20470;-72
2022/07/17 14:14:47;;;;;;;;;;;26.80;12.90;;;;;;5048794;28;20027;-71
2022/07/17 14:17:14;;;;;;;;;;;26.10;12.30;;;;;;5050329;28;19994;-72
2022/07/17 14:19:42;;;;;;;;;;;26.30;12.50;;;;;;5048070;28;19964;-70